createdAt,value
2023-01-25T00:09:58.856Z,59.879
2023-01-25T00:25:01.491Z,60.122
2023-01-25T00:40:04.036Z,59.963
2023-01-25T00:55:07.055Z,60.593
2023-01-25T01:10:09.808Z,60.953
2023-01-25T01:25:12.266Z,60.915
2023-01-25T01:40:14.785Z,62.299
2023-01-25T01:55:17.192Z,62.729
2023-01-25T02:10:19.413Z,62.178
2023-01-25T02:25:21.945Z,61.898
2023-01-25T02:40:24.581Z,62.9
2023-01-25T02:55:27.158Z,62.706
2023-01-25T03:10:29.635Z,64.397
2023-01-25T03:25:31.989Z,62.519
2023-01-25T03:40:34.283Z,63.941
2023-01-25T03:55:36.706Z,63.726
2023-01-25T04:10:39.311Z,64.711
2023-01-25T04:25:41.728Z,64.508
2023-01-25T04:40:44.094Z,64.055
2023-01-25T04:55:46.409Z,64.617
2023-01-25T05:10:48.691Z,64.487
2023-01-25T05:25:51.094Z,64.578
2023-01-25T05:40:53.356Z,64.217
2023-01-25T05:55:55.638Z,64.875
2023-01-25T06:10:57.833Z,65.403
2023-01-25T06:26:00.271Z,64.901
2023-01-25T06:41:02.591Z,65.514
2023-01-25T06:56:04.995Z,65.354
2023-01-25T07:11:07.235Z,64.63
2023-01-25T07:26:09.526Z,65.113
2023-01-25T07:41:11.897Z,65.53
2023-01-25T07:56:14.221Z,65.399
2023-01-25T08:11:16.540Z,65.532
2023-01-25T08:26:18.919Z,64.599
2023-01-25T08:41:21.203Z,65.311
2023-01-25T08:56:23.455Z,64.364
2023-01-25T09:11:25.650Z,65.006
2023-01-25T09:26:27.931Z,64.71
2023-01-25T09:41:30.130Z,65.013
2023-01-25T09:56:32.492Z,64.909
2023-01-25T10:11:34.769Z,64.703
2023-01-25T10:26:37.105Z,64.731
2023-01-25T10:41:39.637Z,65.049
2023-01-25T10:56:41.889Z,65.067
2023-01-25T11:11:44.203Z,65.268
2023-01-25T11:26:46.414Z,65.925
2023-01-25T11:41:48.855Z,66.202
2023-01-25T11:56:51.122Z,65.448
2023-01-25T12:11:53.321Z,65.581
2023-01-25T12:26:55.615Z,65.542
2023-01-25T12:41:57.971Z,65.658
2023-01-25T12:57:00.178Z,65.923
2023-01-25T13:12:02.611Z,65.343
2023-01-25T13:27:04.895Z,65.428
2023-01-25T13:42:07.122Z,65.873
2023-01-25T13:57:09.375Z,66.354
2023-01-25T14:12:11.685Z,66.521
2023-01-25T14:27:13.984Z,66.447
2023-01-25T14:42:16.405Z,66.005
2023-01-25T14:57:18.678Z,67.893
2023-01-25T15:12:22.785Z,67.418
2023-01-25T15:27:25.169Z,68.552
2023-01-25T15:42:27.380Z,67.9
2023-01-25T15:57:29.612Z,67.947
2023-01-25T16:12:31.855Z,68.129
2023-01-25T16:27:34.128Z,69.029
2023-01-25T16:42:36.468Z,66.929
2023-01-25T16:57:38.689Z,67.316
2023-01-25T17:12:40.988Z,66.896
2023-01-25T17:27:43.235Z,66.966
2023-01-25T17:42:45.575Z,66.758
2023-01-25T17:57:47.889Z,66.697
2023-01-25T18:13:03.371Z,65.587
2023-01-25T18:28:06.705Z,65.22
2023-01-25T18:43:09.003Z,65.585
2023-01-25T18:58:11.187Z,63.954
2023-01-25T19:13:13.387Z,63.978
2023-01-25T19:28:15.609Z,63.256
2023-01-25T19:43:17.854Z,61.851
2023-01-25T19:58:20.038Z,62.431
2023-01-25T20:13:22.318Z,61.922
2023-01-25T20:28:24.688Z,60.737
2023-01-25T20:43:26.906Z,59.708
2023-01-25T20:58:29.103Z,61.375
2023-01-25T21:13:31.420Z,59.627
2023-01-25T21:28:33.629Z,59.71
2023-01-25T21:43:35.913Z,59.895
2023-01-25T21:58:38.104Z,58.67
2023-01-25T22:13:40.320Z,59.278
2023-01-25T22:28:42.591Z,58.987
2023-01-25T22:43:44.865Z,56.707
2023-01-25T22:58:47.123Z,58.211
2023-01-25T23:13:49.369Z,59.046
2023-01-25T23:28:51.696Z,59.013
2023-01-25T23:43:54.139Z,59.122
2023-01-25T23:58:56.355Z,57.505
